sensor_id;sensor_type;location;lat;lon;timestamp;P1;durP1;ratioP1;P2;durP2;ratioP2
21517;SDS011;61765;45.794;24.150;2022-10-16T00:07:38;19.52;;;11.88;;
21517;SDS011;61765;45.794;24.150;2022-10-16T00:15:43;19.95;;;11.80;;
21517;SDS011;61765;45.794;24.150;2022-10-16T00:23:52;20.70;;;11.60;;
21517;SDS011;61765;45.794;24.150;2022-10-16T00:32:00;19.23;;;11.20;;
21517;SDS011;61765;45.794;24.150;2022-10-16T00:40:09;22.20;;;13.38;;
21517;SDS011;61765;45.794;24.150;2022-10-16T00:48:15;18.55;;;12.40;;
21517;SDS011;61765;45.794;24.150;2022-10-16T00:56:23;20.38;;;13.07;;
21517;SDS011;61765;45.794;24.150;2022-10-16T01:04:29;18.23;;;12.20;;
21517;SDS011;61765;45.794;24.150;2022-10-16T01:12:43;20.27;;;13.25;;
21517;SDS011;61765;45.794;24.150;2022-10-16T01:20:54;22.10;;;13.90;;
21517;SDS011;61765;45.794;24.150;2022-10-16T01:29:07;18.35;;;11.55;;
21517;SDS011;61765;45.794;24.150;2022-10-16T01:37:16;15.55;;;9.60;;
21517;SDS011;61765;45.794;24.150;2022-10-16T01:45:32;14.88;;;7.80;;
21517;SDS011;61765;45.794;24.150;2022-10-16T01:53:39;15.02;;;7.32;;
21517;SDS011;61765;45.794;24.150;2022-10-16T02:01:49;13.48;;;7.28;;
21517;SDS011;61765;45.794;24.150;2022-10-16T02:09:57;14.73;;;8.00;;
21517;SDS011;61765;45.794;24.150;2022-10-16T02:18:07;10.73;;;7.55;;
21517;SDS011;61765;45.794;24.150;2022-10-16T02:26:15;11.20;;;7.28;;
21517;SDS011;61765;45.794;24.150;2022-10-16T02:34:32;17.05;;;8.50;;
21517;SDS011;61765;45.794;24.150;2022-10-16T02:42:39;13.90;;;7.82;;
21517;SDS011;61765;45.794;24.150;2022-10-16T02:50:48;11.68;;;8.00;;
21517;SDS011;61765;45.794;24.150;2022-10-16T02:58:53;13.10;;;7.40;;
21517;SDS011;61765;45.794;24.150;2022-10-16T03:07:02;13.25;;;8.10;;
21517;SDS011;61765;45.794;24.150;2022-10-16T03:15:08;13.88;;;8.50;;
21517;SDS011;61765;45.794;24.150;2022-10-16T03:23:17;11.70;;;7.95;;
21517;SDS011;61765;45.794;24.150;2022-10-16T03:31:22;14.38;;;7.85;;
21517;SDS011;61765;45.794;24.150;2022-10-16T03:39:30;13.52;;;8.30;;
21517;SDS011;61765;45.794;24.150;2022-10-16T03:47:35;14.50;;;8.63;;
21517;SDS011;61765;45.794;24.150;2022-10-16T03:55:44;14.13;;;7.53;;
21517;SDS011;61765;45.794;24.150;2022-10-16T04:03:49;14.35;;;8.93;;
21517;SDS011;61765;45.794;24.150;2022-10-16T04:11:57;11.20;;;7.60;;
21517;SDS011;61765;45.794;24.150;2022-10-16T04:20:03;12.65;;;8.65;;
21517;SDS011;61765;45.794;24.150;2022-10-16T04:28:11;16.60;;;9.35;;
21517;SDS011;61765;45.794;24.150;2022-10-16T04:36:17;16.67;;;9.15;;
21517;SDS011;61765;45.794;24.150;2022-10-16T04:44:29;15.18;;;9.05;;
21517;SDS011;61765;45.794;24.150;2022-10-16T04:52:35;18.52;;;8.90;;
21517;SDS011;61765;45.794;24.150;2022-10-16T05:00:43;14.52;;;8.60;;
21517;SDS011;61765;45.794;24.150;2022-10-16T05:08:48;13.55;;;9.32;;
21517;SDS011;61765;45.794;24.150;2022-10-16T05:16:56;18.75;;;9.07;;
21517;SDS011;61765;45.794;24.150;2022-10-16T05:25:02;11.93;;;8.40;;
21517;SDS011;61765;45.794;24.150;2022-10-16T05:33:10;16.65;;;8.93;;
21517;SDS011;61765;45.794;24.150;2022-10-16T05:41:15;14.85;;;9.25;;
21517;SDS011;61765;45.794;24.150;2022-10-16T05:49:26;15.15;;;8.10;;
21517;SDS011;61765;45.794;24.150;2022-10-16T05:57:31;14.77;;;7.82;;
21517;SDS011;61765;45.794;24.150;2022-10-16T06:05:39;13.23;;;8.77;;
21517;SDS011;61765;45.794;24.150;2022-10-16T06:13:44;11.85;;;7.95;;
21517;SDS011;61765;45.794;24.150;2022-10-16T06:21:55;11.18;;;7.72;;
21517;SDS011;61765;45.794;24.150;2022-10-16T06:30:01;10.68;;;8.27;;
21517;SDS011;61765;45.794;24.150;2022-10-16T06:38:10;11.88;;;8.38;;
21517;SDS011;61765;45.794;24.150;2022-10-16T06:46:16;15.98;;;7.60;;
21517;SDS011;61765;45.794;24.150;2022-10-16T06:54:26;13.05;;;7.95;;
21517;SDS011;61765;45.794;24.150;2022-10-16T07:02:42;10.95;;;7.32;;
21517;SDS011;61765;45.794;24.150;2022-10-16T07:10:57;8.85;;;6.85;;
21517;SDS011;61765;45.794;24.150;2022-10-16T07:19:03;11.90;;;7.28;;
21517;SDS011;61765;45.794;24.150;2022-10-16T07:27:11;9.10;;;6.10;;
21517;SDS011;61765;45.794;24.150;2022-10-16T07:35:18;10.77;;;7.88;;
21517;SDS011;61765;45.794;24.150;2022-10-16T07:43:26;10.15;;;7.28;;
21517;SDS011;61765;45.794;24.150;2022-10-16T07:51:32;10.35;;;7.03;;
21517;SDS011;61765;45.794;24.150;2022-10-16T07:59:42;8.57;;;5.93;;
21517;SDS011;61765;45.794;24.150;2022-10-16T08:07:48;9.85;;;6.53;;
21517;SDS011;61765;45.794;24.150;2022-10-16T08:15:56;8.68;;;5.57;;
21517;SDS011;61765;45.794;24.150;2022-10-16T08:24:01;11.05;;;6.93;;
21517;SDS011;61765;45.794;24.150;2022-10-16T08:32:10;7.75;;;6.03;;
21517;SDS011;61765;45.794;24.150;2022-10-16T08:40:22;8.57;;;6.53;;
21517;SDS011;61765;45.794;24.150;2022-10-16T08:48:33;10.23;;;6.47;;
21517;SDS011;61765;45.794;24.150;2022-10-16T08:56:46;11.30;;;6.30;;
21517;SDS011;61765;45.794;24.150;2022-10-16T09:04:58;8.25;;;5.28;;
21517;SDS011;61765;45.794;24.150;2022-10-16T09:13:17;8.80;;;5.83;;
21517;SDS011;61765;45.794;24.150;2022-10-16T09:21:31;7.63;;;5.95;;
21517;SDS011;61765;45.794;24.150;2022-10-16T09:29:39;9.15;;;5.40;;
21517;SDS011;61765;45.794;24.150;2022-10-16T09:37:48;5.78;;;4.80;;
21517;SDS011;61765;45.794;24.150;2022-10-16T09:45:56;7.82;;;5.05;;
21517;SDS011;61765;45.794;24.150;2022-10-16T09:54:13;5.10;;;4.60;;
21517;SDS011;61765;45.794;24.150;2022-10-16T10:02:25;7.13;;;5.20;;
21517;SDS011;61765;45.794;24.150;2022-10-16T10:10:37;6.72;;;5.00;;
21517;SDS011;61765;45.794;24.150;2022-10-16T10:18:46;7.80;;;4.65;;
21517;SDS011;61765;45.794;24.150;2022-10-16T10:27:08;5.05;;;4.50;;
21517;SDS011;61765;45.794;24.150;2022-10-16T10:35:21;5.60;;;4.88;;
21517;SDS011;61765;45.794;24.150;2022-10-16T10:43:41;5.07;;;4.57;;
21517;SDS011;61765;45.794;24.150;2022-10-16T10:51:57;6.63;;;5.23;;
21517;SDS011;61765;45.794;24.150;2022-10-16T11:00:19;7.20;;;5.13;;
21517;SDS011;61765;45.794;24.150;2022-10-16T11:08:31;17.95;;;5.57;;
21517;SDS011;61765;45.794;24.150;2022-10-16T11:16:43;9.45;;;5.78;;
21517;SDS011;61765;45.794;24.150;2022-10-16T11:24:59;6.95;;;5.30;;
21517;SDS011;61765;45.794;24.150;2022-10-16T11:33:18;7.28;;;5.07;;
21517;SDS011;61765;45.794;24.150;2022-10-16T11:41:31;11.93;;;5.55;;
21517;SDS011;61765;45.794;24.150;2022-10-16T11:49:42;10.27;;;5.25;;
21517;SDS011;61765;45.794;24.150;2022-10-16T11:57:51;6.15;;;4.43;;
21517;SDS011;61765;45.794;24.150;2022-10-16T12:06:13;8.00;;;4.85;;
21517;SDS011;61765;45.794;24.150;2022-10-16T12:14:35;6.45;;;4.95;;
21517;SDS011;61765;45.794;24.150;2022-10-16T12:23:05;7.03;;;5.18;;
21517;SDS011;61765;45.794;24.150;2022-10-16T12:31:11;7.78;;;5.28;;
21517;SDS011;61765;45.794;24.150;2022-10-16T12:39:22;8.65;;;5.05;;
21517;SDS011;61765;45.794;24.150;2022-10-16T12:47:36;4.60;;;4.13;;
21517;SDS011;61765;45.794;24.150;2022-10-16T12:56:08;7.25;;;4.00;;
21517;SDS011;61765;45.794;24.150;2022-10-16T13:04:22;5.53;;;4.50;;
21517;SDS011;61765;45.794;24.150;2022-10-16T13:12:49;5.80;;;4.65;;
21517;SDS011;61765;45.794;24.150;2022-10-16T13:21:25;4.75;;;4.00;;
21517;SDS011;61765;45.794;24.150;2022-10-16T13:29:48;6.18;;;4.57;;
21517;SDS011;61765;45.794;24.150;2022-10-16T13:38:12;5.32;;;4.07;;
21517;SDS011;61765;45.794;24.150;2022-10-16T13:46:22;5.53;;;3.60;;
21517;SDS011;61765;45.794;24.150;2022-10-16T13:54:28;6.53;;;4.80;;
21517;SDS011;61765;45.794;24.150;2022-10-16T14:02:37;7.65;;;4.30;;
21517;SDS011;61765;45.794;24.150;2022-10-16T14:10:47;7.70;;;5.18;;
21517;SDS011;61765;45.794;24.150;2022-10-16T14:18:58;6.47;;;4.78;;
21517;SDS011;61765;45.794;24.150;2022-10-16T14:27:20;5.32;;;4.32;;
21517;SDS011;61765;45.794;24.150;2022-10-16T14:35:36;6.22;;;4.47;;
21517;SDS011;61765;45.794;24.150;2022-10-16T14:43:43;6.95;;;4.22;;
21517;SDS011;61765;45.794;24.150;2022-10-16T14:51:55;7.93;;;5.47;;
21517;SDS011;61765;45.794;24.150;2022-10-16T15:00:02;10.02;;;5.53;;
21517;SDS011;61765;45.794;24.150;2022-10-16T15:08:13;7.15;;;5.07;;
21517;SDS011;61765;45.794;24.150;2022-10-16T15:16:19;8.65;;;5.60;;
21517;SDS011;61765;45.794;24.150;2022-10-16T15:24:30;7.22;;;5.43;;
21517;SDS011;61765;45.794;24.150;2022-10-16T15:32:35;11.10;;;5.88;;
21517;SDS011;61765;45.794;24.150;2022-10-16T15:40:43;9.07;;;6.07;;
21517;SDS011;61765;45.794;24.150;2022-10-16T15:48:50;20.10;;;13.38;;
21517;SDS011;61765;45.794;24.150;2022-10-16T15:57:02;14.65;;;8.95;;
21517;SDS011;61765;45.794;24.150;2022-10-16T16:05:08;14.75;;;8.40;;
21517;SDS011;61765;45.794;24.150;2022-10-16T16:13:17;9.15;;;6.82;;
21517;SDS011;61765;45.794;24.150;2022-10-16T16:21:23;15.05;;;8.02;;
21517;SDS011;61765;45.794;24.150;2022-10-16T16:29:34;12.20;;;8.95;;
21517;SDS011;61765;45.794;24.150;2022-10-16T16:37:40;15.95;;;9.85;;
21517;SDS011;61765;45.794;24.150;2022-10-16T16:45:48;18.17;;;10.52;;
21517;SDS011;61765;45.794;24.150;2022-10-16T16:53:53;14.98;;;10.75;;
21517;SDS011;61765;45.794;24.150;2022-10-16T17:02:02;18.63;;;13.07;;
21517;SDS011;61765;45.794;24.150;2022-10-16T17:10:08;19.10;;;12.98;;
21517;SDS011;61765;45.794;24.150;2022-10-16T17:18:19;24.88;;;13.27;;
21517;SDS011;61765;45.794;24.150;2022-10-16T17:26:25;20.42;;;14.20;;
21517;SDS011;61765;45.794;24.150;2022-10-16T17:34:33;24.05;;;14.13;;
21517;SDS011;61765;45.794;24.150;2022-10-16T17:42:38;23.10;;;14.13;;
21517;SDS011;61765;45.794;24.150;2022-10-16T17:50:46;22.27;;;13.70;;
21517;SDS011;61765;45.794;24.150;2022-10-16T17:58:53;25.85;;;13.73;;
21517;SDS011;61765;45.794;24.150;2022-10-16T18:07:03;26.33;;;16.58;;
21517;SDS011;61765;45.794;24.150;2022-10-16T18:15:08;30.42;;;15.73;;
21517;SDS011;61765;45.794;24.150;2022-10-16T18:23:20;29.85;;;17.33;;
21517;SDS011;61765;45.794;24.150;2022-10-16T18:31:25;37.85;;;18.70;;
21517;SDS011;61765;45.794;24.150;2022-10-16T18:39:33;28.13;;;15.25;;
21517;SDS011;61765;45.794;24.150;2022-10-16T18:47:38;26.58;;;17.38;;
21517;SDS011;61765;45.794;24.150;2022-10-16T18:55:52;31.35;;;16.30;;
21517;SDS011;61765;45.794;24.150;2022-10-16T19:03:58;27.98;;;15.18;;
21517;SDS011;61765;45.794;24.150;2022-10-16T19:12:08;28.02;;;14.77;;
21517;SDS011;61765;45.794;24.150;2022-10-16T19:20:14;29.80;;;15.93;;
21517;SDS011;61765;45.794;24.150;2022-10-16T19:28:22;26.85;;;15.77;;
21517;SDS011;61765;45.794;24.150;2022-10-16T19:36:28;26.77;;;16.40;;
21517;SDS011;61765;45.794;24.150;2022-10-16T19:44:37;25.60;;;13.95;;
21517;SDS011;61765;45.794;24.150;2022-10-16T19:52:43;21.15;;;13.90;;
21517;SDS011;61765;45.794;24.150;2022-10-16T20:00:51;18.00;;;12.63;;
21517;SDS011;61765;45.794;24.150;2022-10-16T20:08:58;24.20;;;12.57;;
21517;SDS011;61765;45.794;24.150;2022-10-16T20:17:06;24.02;;;13.25;;
21517;SDS011;61765;45.794;24.150;2022-10-16T20:25:12;23.92;;;12.80;;
21517;SDS011;61765;45.794;24.150;2022-10-16T20:33:22;22.52;;;13.95;;
21517;SDS011;61765;45.794;24.150;2022-10-16T20:41:28;26.88;;;15.20;;
21517;SDS011;61765;45.794;24.150;2022-10-16T20:49:36;27.83;;;17.10;;
21517;SDS011;61765;45.794;24.150;2022-10-16T20:57:41;30.27;;;17.55;;
21517;SDS011;61765;45.794;24.150;2022-10-16T21:05:49;26.52;;;16.35;;
21517;SDS011;61765;45.794;24.150;2022-10-16T21:14:00;25.70;;;15.07;;
21517;SDS011;61765;45.794;24.150;2022-10-16T21:22:10;23.10;;;15.10;;
21517;SDS011;61765;45.794;24.150;2022-10-16T21:30:15;26.30;;;15.15;;
21517;SDS011;61765;45.794;24.150;2022-10-16T21:38:24;21.70;;;13.93;;
21517;SDS011;61765;45.794;24.150;2022-10-16T21:46:30;24.50;;;15.00;;
21517;SDS011;61765;45.794;24.150;2022-10-16T21:54:39;27.60;;;14.90;;
21517;SDS011;61765;45.794;24.150;2022-10-16T22:02:44;29.52;;;16.40;;
21517;SDS011;61765;45.794;24.150;2022-10-16T22:10:52;23.38;;;16.10;;
21517;SDS011;61765;45.794;24.150;2022-10-16T22:18:58;26.65;;;16.88;;
21517;SDS011;61765;45.794;24.150;2022-10-16T22:27:06;23.35;;;15.63;;
21517;SDS011;61765;45.794;24.150;2022-10-16T22:35:12;26.77;;;17.77;;
21517;SDS011;61765;45.794;24.150;2022-10-16T22:43:20;34.75;;;19.50;;
21517;SDS011;61765;45.794;24.150;2022-10-16T22:51:26;30.75;;;19.27;;
21517;SDS011;61765;45.794;24.150;2022-10-16T22:59:35;35.08;;;19.98;;
21517;SDS011;61765;45.794;24.150;2022-10-16T23:07:40;34.28;;;19.27;;
21517;SDS011;61765;45.794;24.150;2022-10-16T23:15:49;34.35;;;16.75;;
21517;SDS011;61765;45.794;24.150;2022-10-16T23:23:55;26.50;;;15.57;;
21517;SDS011;61765;45.794;24.150;2022-10-16T23:32:03;20.20;;;13.43;;
21517;SDS011;61765;45.794;24.150;2022-10-16T23:40:08;23.45;;;13.23;;
21517;SDS011;61765;45.794;24.150;2022-10-16T23:48:17;19.38;;;12.32;;
21517;SDS011;61765;45.794;24.150;2022-10-16T23:56:22;19.58;;;12.32;;
